createdAt,value
2018-05-09T00:00:31.152Z,13.90
2018-05-09T00:02:59.464Z,13.80
2018-05-09T00:05:26.994Z,13.80
2018-05-09T00:07:55.278Z,13.60
2018-05-09T00:10:22.799Z,13.60
2018-05-09T00:12:50.352Z,13.60
2018-05-09T00:15:17.887Z,13.50
2018-05-09T00:17:46.156Z,13.50
2018-05-09T00:20:14.443Z,13.50
2018-05-09T00:22:41.968Z,13.50
2018-05-09T00:25:09.500Z,13.50
2018-05-09T00:27:37.185Z,13.40
2018-05-09T00:30:04.700Z,13.40
2018-05-09T00:32:32.982Z,13.50
2018-05-09T00:35:00.504Z,13.50
2018-05-09T00:37:28.026Z,13.50
2018-05-09T00:39:55.560Z,13.40
2018-05-09T00:42:23.089Z,13.40
2018-05-09T00:44:50.604Z,13.40
2018-05-09T00:47:18.880Z,13.40
2018-05-09T00:49:47.169Z,13.40
2018-05-09T00:52:14.705Z,13.40
2018-05-09T00:54:42.208Z,13.30
2018-05-09T00:57:10.179Z,13.30
2018-05-09T00:59:37.701Z,13.30
2018-05-09T01:02:05.213Z,13.30
2018-05-09T01:04:32.753Z,13.30
2018-05-09T01:07:01.034Z,13.20
2018-05-09T01:09:29.313Z,13.10
2018-05-09T01:11:57.904Z,13.00
2018-05-09T01:14:26.169Z,12.90
2018-05-09T01:16:53.702Z,12.90
2018-05-09T01:19:21.257Z,12.90
2018-05-09T01:21:48.772Z,12.90
2018-05-09T01:24:17.079Z,13.00
2018-05-09T01:26:44.623Z,13.00
2018-05-09T01:29:12.892Z,12.80
2018-05-09T01:31:40.403Z,12.80
2018-05-09T01:34:07.902Z,12.70
2018-05-09T01:36:35.397Z,12.70
2018-05-09T01:39:02.968Z,12.70
2018-05-09T01:41:31.238Z,12.70
2018-05-09T01:43:59.517Z,12.80
2018-05-09T01:46:27.793Z,12.80
2018-05-09T01:48:56.071Z,12.80
2018-05-09T01:51:23.569Z,12.80
2018-05-09T01:53:51.087Z,12.80
2018-05-09T01:56:18.604Z,12.70
2018-05-09T01:58:46.111Z,12.60
2018-05-09T02:01:13.610Z,12.60
2018-05-09T02:03:41.134Z,12.50
2018-05-09T02:06:08.742Z,12.50
2018-05-09T02:08:36.178Z,12.50
2018-05-09T02:11:03.732Z,12.60
2018-05-09T02:13:31.235Z,12.60
2018-05-09T02:15:58.737Z,12.60
2018-05-09T02:18:26.240Z,12.50
2018-05-09T02:20:54.512Z,12.40
2018-05-09T02:23:22.805Z,12.40
2018-05-09T02:25:51.074Z,12.50
2018-05-09T02:28:18.585Z,12.50
2018-05-09T02:30:46.105Z,12.50
2018-05-09T02:33:14.389Z,12.60
2018-05-09T02:35:42.657Z,12.50
2018-05-09T02:38:10.180Z,12.50
2018-05-09T02:40:37.700Z,12.50
2018-05-09T02:43:05.966Z,12.40
2018-05-09T02:45:33.467Z,12.40
2018-05-09T02:48:00.980Z,12.40
2018-05-09T02:50:28.483Z,12.40
2018-05-09T02:52:56.756Z,12.30
2018-05-09T02:55:25.021Z,12.30
2018-05-09T02:57:52.521Z,12.30
2018-05-09T03:00:20.022Z,12.30
2018-05-09T03:02:47.539Z,12.20
2018-05-09T03:05:15.079Z,12.20
2018-05-09T03:07:43.350Z,12.10
2018-05-09T03:10:10.852Z,12.00
2018-05-09T03:12:38.370Z,12.10
2018-05-09T03:15:05.872Z,12.10
2018-05-09T03:17:33.389Z,12.20
2018-05-09T03:20:00.889Z,12.20
2018-05-09T03:22:29.160Z,12.20
2018-05-09T03:24:57.432Z,12.10
2018-05-09T03:27:24.940Z,12.10
2018-05-09T03:29:52.518Z,12.00
2018-05-09T03:32:20.739Z,12.00
2018-05-09T03:34:48.249Z,12.00
2018-05-09T03:37:15.762Z,12.00
2018-05-09T03:39:43.280Z,12.00
2018-05-09T03:42:10.786Z,12.00
2018-05-09T03:44:38.280Z,12.00
2018-05-09T03:47:06.552Z,12.00
2018-05-09T03:49:34.840Z,12.00
2018-05-09T03:52:03.123Z,12.00
2018-05-09T03:54:31.385Z,11.90
2018-05-09T03:56:59.665Z,11.80
2018-05-09T03:59:27.935Z,11.80
2018-05-09T04:02:07.329Z,11.80
2018-05-09T04:04:46.692Z,11.70
2018-05-09T04:07:25.942Z,11.70
2018-05-09T04:09:55.182Z,11.70
2018-05-09T04:12:22.698Z,11.70
2018-05-09T04:14:51.619Z,11.70
2018-05-09T04:17:19.918Z,11.70
2018-05-09T04:19:47.429Z,11.70
2018-05-09T04:22:14.941Z,11.70
2018-05-09T04:24:42.455Z,11.70
2018-05-09T04:27:09.972Z,11.70
2018-05-09T04:29:37.486Z,11.80
2018-05-09T04:32:05.018Z,11.80
2018-05-09T04:34:32.702Z,11.80
2018-05-09T04:37:00.208Z,11.80
2018-05-09T04:39:28.500Z,11.80
2018-05-09T04:41:56.019Z,11.80
2018-05-09T04:44:23.502Z,11.80
2018-05-09T04:46:51.033Z,11.80
2018-05-09T04:49:18.544Z,11.70
2018-05-09T04:51:46.823Z,11.60
2018-05-09T04:54:15.104Z,11.60
2018-05-09T04:56:43.377Z,11.70
2018-05-09T04:59:11.646Z,11.70
2018-05-09T05:05:00.925Z,11.80
2018-05-09T05:07:29.449Z,11.90
2018-05-09T05:09:56.953Z,11.90
2018-05-09T05:12:24.774Z,11.90
2018-05-09T05:14:52.292Z,11.80
2018-05-09T05:17:19.803Z,11.80
2018-05-09T05:19:47.311Z,11.80
2018-05-09T05:22:16.330Z,11.90
2018-05-09T05:24:44.605Z,11.90
2018-05-09T05:27:12.910Z,12.00
2018-05-09T05:29:40.455Z,12.00
2018-05-09T05:32:07.970Z,12.00
2018-05-09T05:34:35.476Z,12.00
2018-05-09T05:37:03.746Z,12.10
2018-05-09T05:39:31.274Z,12.10
2018-05-09T05:41:58.820Z,12.20
2018-05-09T05:44:26.328Z,12.20
2018-05-09T05:46:53.826Z,12.20
2018-05-09T05:49:22.121Z,12.50
2018-05-09T05:51:49.620Z,12.50
2018-05-09T05:54:17.149Z,12.70
2018-05-09T05:56:44.657Z,13.10
2018-05-09T05:59:12.149Z,13.40
2018-05-09T06:01:40.443Z,14.00
2018-05-09T06:04:08.707Z,14.30
2018-05-09T06:06:36.232Z,14.30
2018-05-09T06:09:03.782Z,14.60
2018-05-09T06:11:31.296Z,14.70
2018-05-09T06:13:58.820Z,15.00
2018-05-09T06:16:26.370Z,15.20
2018-05-09T06:18:53.885Z,15.40
2018-05-09T06:21:21.380Z,15.40
2018-05-09T06:23:48.945Z,15.60
2018-05-09T06:26:16.400Z,15.70
2018-05-09T06:28:44.680Z,15.80
2018-05-09T06:31:12.950Z,16.00
2018-05-09T06:33:41.282Z,16.20
2018-05-09T06:36:09.544Z,16.30
2018-05-09T06:38:37.047Z,16.30
2018-05-09T06:41:04.558Z,16.40
2018-05-09T06:43:32.090Z,16.50
2018-05-09T06:45:59.588Z,16.50
2018-05-09T06:48:27.106Z,16.50
2018-05-09T06:50:54.608Z,16.50
2018-05-09T06:53:22.108Z,16.70
2018-05-09T06:55:49.614Z,16.90
2018-05-09T06:58:17.165Z,17.10
2018-05-09T07:00:44.662Z,17.20
2018-05-09T07:03:12.952Z,17.20
2018-05-09T07:05:40.460Z,17.20
2018-05-09T07:08:08.134Z,17.30
2018-05-09T07:10:35.644Z,17.30
2018-05-09T07:13:03.164Z,17.50
2018-05-09T07:15:30.660Z,17.70
2018-05-09T07:17:58.172Z,17.90
2018-05-09T07:20:25.679Z,18.00
2018-05-09T07:22:53.950Z,18.30
2018-05-09T07:25:22.229Z,18.50
2018-05-09T07:27:50.503Z,18.70
2018-05-09T07:30:18.017Z,18.70
2018-05-09T07:32:45.537Z,18.60
2018-05-09T07:35:13.043Z,18.60
2018-05-09T07:37:40.543Z,18.50
2018-05-09T07:40:08.045Z,18.70
2018-05-09T07:42:36.310Z,18.80
2018-05-09T07:45:04.599Z,18.80
2018-05-09T07:47:32.156Z,18.70
2018-05-09T07:49:59.618Z,18.70
2018-05-09T07:52:28.026Z,18.70
2018-05-09T07:54:55.529Z,18.70
2018-05-09T07:57:23.211Z,19.00
2018-05-09T07:59:51.483Z,19.60
2018-05-09T08:02:19.003Z,19.60
2018-05-09T08:04:46.501Z,19.90
2018-05-09T08:07:14.025Z,20.00
2018-05-09T08:09:41.537Z,20.20
2018-05-09T08:12:09.039Z,20.20
2018-05-09T08:14:37.304Z,20.00
2018-05-09T08:17:05.594Z,20.20
2018-05-09T08:19:33.876Z,20.20
2018-05-09T08:22:02.166Z,20.30
2018-05-09T08:24:30.434Z,20.50
2018-05-09T08:26:57.945Z,20.40
2018-05-09T08:29:25.464Z,20.40
2018-05-09T08:31:52.973Z,20.60
2018-05-09T08:34:20.480Z,20.80
2018-05-09T08:36:48.045Z,20.70
2018-05-09T08:39:15.477Z,20.20
2018-05-09T08:41:42.978Z,19.70
2018-05-09T08:44:11.247Z,19.40
2018-05-09T08:46:38.761Z,19.40
2018-05-09T08:49:06.325Z,19.40
2018-05-09T08:51:33.813Z,19.60
2018-05-09T08:54:01.317Z,20.10
2018-05-09T08:56:29.577Z,20.50
2018-05-09T08:58:57.082Z,20.50
2018-05-09T09:01:24.589Z,20.80
2018-05-09T09:03:52.097Z,20.80
2018-05-09T09:06:20.390Z,20.50
2018-05-09T09:08:47.893Z,20.50
2018-05-09T09:11:15.397Z,20.80
2018-05-09T09:13:43.667Z,21.10
2018-05-09T09:16:11.171Z,21.10
2018-05-09T09:18:38.716Z,21.00
2018-05-09T09:21:06.187Z,21.20
2018-05-09T09:23:33.713Z,21.40
2018-05-09T09:26:01.247Z,21.40
2018-05-09T09:28:28.744Z,21.20
2018-05-09T09:30:56.253Z,21.30
2018-05-09T09:33:23.750Z,21.70
2018-05-09T09:35:51.272Z,22.00
2018-05-09T09:38:18.784Z,22.10
2018-05-09T09:40:46.302Z,21.90
2018-05-09T09:43:13.820Z,21.80
2018-05-09T09:45:41.316Z,22.10
2018-05-09T09:48:08.841Z,21.90
2018-05-09T09:50:36.445Z,22.30
2018-05-09T09:53:03.904Z,22.70
2018-05-09T09:55:32.494Z,22.60
2018-05-09T09:58:00.004Z,22.60
2018-05-09T10:00:27.506Z,22.60
2018-05-09T10:02:55.779Z,22.80
2018-05-09T10:05:23.281Z,22.80
2018-05-09T10:07:50.782Z,22.90
2018-05-09T10:10:18.517Z,22.90
2018-05-09T10:12:46.009Z,22.90
2018-05-09T10:15:13.522Z,23.00
2018-05-09T10:17:41.027Z,23.20
2018-05-09T10:20:08.525Z,23.10
2018-05-09T10:22:36.805Z,22.60
2018-05-09T10:25:05.093Z,22.50
2018-05-09T10:27:32.595Z,22.40
2018-05-09T10:30:00.097Z,22.30
2018-05-09T10:32:27.601Z,22.20
2018-05-09T10:34:55.886Z,22.20
2018-05-09T10:37:23.406Z,22.20
2018-05-09T10:39:50.903Z,22.10
2018-05-09T10:42:19.172Z,22.10
2018-05-09T10:44:47.454Z,22.20
2018-05-09T10:47:15.729Z,22.30
2018-05-09T10:49:44.014Z,22.30
2018-05-09T10:52:12.299Z,22.30
2018-05-09T10:54:39.807Z,22.30
2018-05-09T10:57:07.314Z,22.40
2018-05-09T10:59:34.827Z,22.70
2018-05-09T11:02:03.106Z,22.60
2018-05-09T11:04:30.621Z,22.60
2018-05-09T11:06:58.910Z,22.50
2018-05-09T11:09:27.195Z,22.60
2018-05-09T11:11:55.461Z,22.60
2018-05-09T11:14:22.987Z,22.60
2018-05-09T11:16:50.489Z,22.40
2018-05-09T11:19:18.032Z,22.10
2018-05-09T11:21:45.559Z,22.00
2018-05-09T11:24:13.057Z,21.70
2018-05-09T11:26:40.569Z,21.50
2018-05-09T11:29:08.853Z,21.10
2018-05-09T11:31:36.353Z,21.10
2018-05-09T11:34:04.675Z,20.90
2018-05-09T11:36:32.945Z,20.90
2018-05-09T11:39:00.445Z,20.90
2018-05-09T11:41:27.936Z,21.00
2018-05-09T11:43:55.452Z,21.00
2018-05-09T11:46:23.734Z,20.90
2018-05-09T11:48:52.010Z,20.80
2018-05-09T11:51:20.335Z,20.60
2018-05-09T11:53:47.831Z,20.60
2018-05-09T11:56:15.379Z,20.50
2018-05-09T11:58:42.884Z,20.60
2018-05-09T12:01:10.397Z,20.90
2018-05-09T12:03:37.909Z,21.00
2018-05-09T12:06:06.191Z,21.30
2018-05-09T12:08:34.463Z,21.50
2018-05-09T12:11:01.963Z,21.50
2018-05-09T12:13:29.468Z,21.90
2018-05-09T12:15:57.001Z,22.20
2018-05-09T12:18:24.514Z,22.50
2018-05-09T12:20:52.033Z,23.00
2018-05-09T12:23:19.539Z,23.40
2018-05-09T12:25:47.045Z,23.70
2018-05-09T12:28:14.574Z,24.10
2018-05-09T12:30:42.068Z,24.50
2018-05-09T12:33:09.574Z,24.70
2018-05-09T12:35:37.104Z,25.10
2018-05-09T12:38:04.628Z,25.30
2018-05-09T12:40:32.119Z,24.90
2018-05-09T12:43:00.420Z,24.20
2018-05-09T12:45:28.693Z,23.90
2018-05-09T12:47:56.221Z,23.90
2018-05-09T12:50:24.495Z,23.90
2018-05-09T12:52:51.992Z,23.90
2018-05-09T12:55:20.271Z,23.70
2018-05-09T12:57:47.819Z,23.70
2018-05-09T13:00:16.336Z,23.80
2018-05-09T13:02:43.846Z,23.80
2018-05-09T13:05:11.350Z,24.10
2018-05-09T13:07:38.857Z,24.30
2018-05-09T13:10:06.381Z,24.40
2018-05-09T13:12:33.889Z,24.50
2018-05-09T13:15:01.401Z,24.70
2018-05-09T13:17:28.907Z,24.80
2018-05-09T13:19:56.418Z,24.80
2018-05-09T13:22:23.932Z,24.70
2018-05-09T13:24:51.432Z,24.70
2018-05-09T13:27:19.782Z,24.20
2018-05-09T13:29:47.286Z,24.10
2018-05-09T13:32:15.558Z,24.40
2018-05-09T13:34:43.854Z,24.50
2018-05-09T13:37:11.383Z,24.40
2018-05-09T13:39:38.884Z,24.40
2018-05-09T13:42:06.508Z,24.50
2018-05-09T13:44:34.010Z,24.70
2018-05-09T13:47:01.505Z,24.90
2018-05-09T13:49:29.049Z,24.90
2018-05-09T13:51:56.546Z,24.90
2018-05-09T13:54:24.068Z,25.10
2018-05-09T13:56:51.585Z,25.20
2018-05-09T13:59:19.095Z,24.80
2018-05-09T14:01:46.625Z,24.70
2018-05-09T14:04:14.194Z,24.70
2018-05-09T14:06:41.695Z,24.90
2018-05-09T14:09:09.201Z,24.90
2018-05-09T14:11:36.699Z,25.10
2018-05-09T14:14:04.969Z,25.50
2018-05-09T14:16:33.245Z,26.00
2018-05-09T14:19:00.740Z,26.00
2018-05-09T14:21:28.259Z,26.40
2018-05-09T14:23:55.813Z,26.60
2018-05-09T14:26:23.315Z,26.80
2018-05-09T14:28:51.589Z,26.70
2018-05-09T14:31:19.871Z,26.00
2018-05-09T14:33:48.131Z,25.20
2018-05-09T14:36:15.634Z,25.10
2018-05-09T14:38:43.139Z,24.60
2018-05-09T14:41:10.644Z,24.00
2018-05-09T14:43:38.919Z,23.70
2018-05-09T14:46:07.197Z,23.50
2018-05-09T14:48:35.458Z,23.40
2018-05-09T14:51:02.979Z,23.40
2018-05-09T14:53:30.505Z,23.40
2018-05-09T14:55:58.781Z,23.60
2018-05-09T14:58:26.293Z,23.60
2018-05-09T15:00:53.833Z,23.50
2018-05-09T15:03:21.360Z,23.40
2018-05-09T15:05:48.866Z,23.00
2018-05-09T15:08:16.372Z,22.80
2018-05-09T15:10:43.881Z,22.70
2018-05-09T15:13:11.385Z,22.60
2018-05-09T15:15:39.664Z,22.00
2018-05-09T15:18:07.170Z,22.00
2018-05-09T15:20:34.665Z,21.60
2018-05-09T15:23:02.174Z,21.30
2018-05-09T15:25:29.751Z,21.20
2018-05-09T15:27:57.189Z,21.20
2018-05-09T15:30:24.721Z,21.10
2018-05-09T15:32:52.284Z,21.10
2018-05-09T15:35:20.505Z,20.90
2018-05-09T15:37:48.014Z,20.90
2018-05-09T15:40:16.282Z,20.80
2018-05-09T15:42:44.551Z,20.80
2018-05-09T15:45:12.055Z,20.70
2018-05-09T15:47:39.551Z,20.70
2018-05-09T15:50:07.055Z,20.70
2018-05-09T15:52:35.319Z,20.80
2018-05-09T15:55:02.845Z,20.70
2018-05-09T15:57:30.353Z,20.70
2018-05-09T15:59:57.865Z,20.60
2018-05-09T16:02:26.141Z,20.30
2018-05-09T16:04:53.650Z,20.20
2018-05-09T16:07:21.320Z,20.10
2018-05-09T16:09:48.857Z,20.00
2018-05-09T16:12:16.363Z,20.10
2018-05-09T16:14:44.650Z,20.00
2018-05-09T16:17:12.931Z,19.90
2018-05-09T16:19:41.383Z,19.80
2018-05-09T16:22:08.885Z,19.80
2018-05-09T16:24:36.399Z,19.70
2018-05-09T16:27:03.909Z,19.60
2018-05-09T16:29:32.191Z,19.50
2018-05-09T16:32:00.466Z,19.40
2018-05-09T16:34:28.738Z,19.20
2018-05-09T16:36:57.014Z,19.00
2018-05-09T16:39:24.532Z,19.00
2018-05-09T16:41:52.052Z,19.00
2018-05-09T16:44:20.330Z,19.00
2018-05-09T16:46:47.847Z,19.00
2018-05-09T16:49:15.350Z,19.00
2018-05-09T16:51:42.850Z,19.00
2018-05-09T16:54:10.372Z,19.10
2018-05-09T16:56:37.881Z,19.10
2018-05-09T16:59:05.380Z,19.10
2018-05-09T17:01:32.937Z,19.10
2018-05-09T17:04:00.435Z,19.10
2018-05-09T17:06:28.708Z,19.00
2018-05-09T17:08:56.226Z,19.00
2018-05-09T17:11:23.760Z,19.00
2018-05-09T17:13:52.013Z,18.80
2018-05-09T17:16:19.518Z,18.80
2018-05-09T17:18:47.020Z,18.80
2018-05-09T17:21:32.218Z,18.60
2018-05-09T17:24:00.492Z,18.30
2018-05-09T17:26:28.019Z,18.30
2018-05-09T17:28:55.533Z,18.20
2018-05-09T17:31:23.803Z,18.00
2018-05-09T17:33:52.086Z,18.00
2018-05-09T17:36:20.359Z,17.80
2018-05-09T17:38:47.883Z,17.80
2018-05-09T17:41:15.381Z,17.60
2018-05-09T17:43:42.906Z,17.60
2018-05-09T17:46:10.442Z,17.50
2018-05-09T17:48:37.982Z,17.50
2018-05-09T17:51:06.724Z,17.50
2018-05-09T17:53:34.271Z,17.40
2018-05-09T17:56:01.777Z,17.40
2018-05-09T17:58:29.285Z,17.20
2018-05-09T18:00:56.832Z,17.20
2018-05-09T18:03:25.134Z,17.10
2018-05-09T18:05:52.640Z,17.10
2018-05-09T18:08:20.147Z,17.10
2018-05-09T18:10:48.481Z,17.00
2018-05-09T18:13:15.983Z,17.00
2018-05-09T18:15:43.553Z,17.10
2018-05-09T18:18:11.940Z,17.00
2018-05-09T18:20:39.371Z,17.00
2018-05-09T18:23:06.879Z,17.00
2018-05-09T18:25:34.441Z,17.00
2018-05-09T18:28:01.957Z,16.90
2018-05-09T18:30:29.455Z,16.80
2018-05-09T18:32:56.961Z,16.80
2018-05-09T18:35:24.483Z,16.70
2018-05-09T18:37:52.793Z,16.70
2018-05-09T18:40:20.312Z,16.70
2018-05-09T18:42:47.817Z,16.70
2018-05-09T18:45:15.365Z,16.80
2018-05-09T18:47:42.885Z,16.90
2018-05-09T18:50:10.406Z,16.90
2018-05-09T18:52:37.932Z,16.80
2018-05-09T18:55:05.468Z,16.70
2018-05-09T18:57:32.988Z,16.60
2018-05-09T19:00:00.556Z,16.50
2018-05-09T19:02:28.448Z,16.30
2018-05-09T19:04:55.965Z,16.20
2018-05-09T19:07:24.256Z,15.80
2018-05-09T19:09:52.573Z,15.80
2018-05-09T19:12:20.103Z,15.80
2018-05-09T19:14:47.636Z,15.80
2018-05-09T19:17:15.150Z,15.80
2018-05-09T19:19:42.668Z,15.80
2018-05-09T19:22:10.169Z,15.80
2018-05-09T19:24:37.691Z,15.70
2018-05-09T19:27:05.230Z,15.60
2018-05-09T19:29:32.740Z,15.60
2018-05-09T19:32:01.020Z,15.70
2018-05-09T19:34:29.320Z,15.70
2018-05-09T19:36:56.818Z,15.70
2018-05-09T19:39:24.322Z,15.70
2018-05-09T19:41:51.879Z,15.60
2018-05-09T19:44:19.341Z,15.60
2018-05-09T19:46:46.878Z,15.50
2018-05-09T19:49:14.379Z,15.40
2018-05-09T19:51:42.647Z,15.30
2018-05-09T19:54:10.172Z,15.30
2018-05-09T19:56:37.683Z,15.30
2018-05-09T19:59:05.966Z,15.20
2018-05-09T20:01:34.246Z,15.20
2018-05-09T20:04:02.525Z,15.00
2018-05-09T20:06:30.855Z,14.80
2018-05-09T20:08:58.375Z,14.80
2018-05-09T20:11:26.684Z,14.70
2018-05-09T20:13:54.229Z,14.70
2018-05-09T20:16:21.722Z,14.60
2018-05-09T20:18:49.228Z,14.40
2018-05-09T20:21:16.751Z,14.20
2018-05-09T20:23:44.345Z,14.10
2018-05-09T20:26:11.871Z,14.10
2018-05-09T20:28:39.384Z,14.00
2018-05-09T20:31:24.698Z,14.00
2018-05-09T20:33:52.226Z,14.00
2018-05-09T20:36:19.773Z,14.00
2018-05-09T20:38:48.210Z,14.00
2018-05-09T20:41:15.820Z,14.00
2018-05-09T20:43:43.247Z,14.00
2018-05-09T20:46:10.759Z,14.00
2018-05-09T20:48:38.318Z,13.90
2018-05-09T20:51:05.828Z,13.90
2018-05-09T20:53:33.332Z,13.90
2018-05-09T20:56:00.841Z,13.80
2018-05-09T20:58:28.357Z,13.80
2018-05-09T21:00:55.893Z,13.60
2018-05-09T21:03:23.409Z,13.60
2018-05-09T21:05:50.947Z,13.50
2018-05-09T21:08:18.899Z,13.40
2018-05-09T21:10:46.453Z,13.30
2018-05-09T21:13:13.997Z,13.20
2018-05-09T21:15:42.319Z,13.30
2018-05-09T21:18:09.839Z,13.30
2018-05-09T21:20:38.109Z,13.40
2018-05-09T21:23:05.623Z,13.50
2018-05-09T21:25:33.155Z,13.50
2018-05-09T21:28:00.669Z,13.50
2018-05-09T21:30:28.177Z,13.60
2018-05-09T21:32:56.443Z,13.60
2018-05-09T21:35:24.736Z,13.60
2018-05-09T21:37:53.034Z,13.60
2018-05-09T21:40:20.543Z,13.60
2018-05-09T21:42:48.053Z,13.70
2018-05-09T21:45:16.317Z,13.70
2018-05-09T21:47:44.603Z,13.70
2018-05-09T21:50:12.877Z,13.50
2018-05-09T21:52:41.150Z,13.40
2018-05-09T21:55:08.705Z,13.40
2018-05-09T21:57:36.216Z,13.30
2018-05-09T22:00:03.769Z,13.20
2018-05-09T22:02:31.444Z,13.00
2018-05-09T22:04:58.943Z,12.90
2018-05-09T22:07:26.443Z,12.90
2018-05-09T22:09:54.912Z,12.90
2018-05-09T22:12:22.424Z,12.90
2018-05-09T22:14:49.935Z,13.00
2018-05-09T22:17:17.448Z,13.00
2018-05-09T22:19:44.974Z,12.90
2018-05-09T22:22:13.254Z,12.90
2018-05-09T22:24:40.752Z,12.90
2018-05-09T22:27:08.264Z,12.90
2018-05-09T22:29:35.786Z,12.90
2018-05-09T22:32:03.531Z,12.90
2018-05-09T22:34:31.811Z,12.60
2018-05-09T22:37:00.100Z,12.60
2018-05-09T22:39:27.609Z,12.60
2018-05-09T22:41:55.146Z,12.70
2018-05-09T22:44:22.660Z,12.70
2018-05-09T22:46:50.174Z,12.50
2018-05-09T22:49:17.676Z,12.40
2018-05-09T22:51:45.176Z,12.40
2018-05-09T22:54:13.456Z,12.50
2018-05-09T22:56:41.008Z,12.40
2018-05-09T22:59:09.290Z,12.30
2018-05-09T23:01:37.562Z,12.30
2018-05-09T23:04:05.082Z,12.30
2018-05-09T23:06:32.586Z,12.20
2018-05-09T23:09:00.107Z,12.10
2018-05-09T23:11:27.600Z,12.10
2018-05-09T23:13:55.101Z,12.10
2018-05-09T23:16:23.380Z,12.10
2018-05-09T23:18:51.672Z,12.00
2018-05-09T23:21:19.170Z,12.00
2018-05-09T23:23:46.749Z,11.90
2018-05-09T23:26:14.957Z,11.90
2018-05-09T23:28:42.467Z,11.80
2018-05-09T23:31:09.981Z,11.90
2018-05-09T23:33:38.263Z,12.00
2018-05-09T23:36:06.549Z,12.00
2018-05-09T23:38:34.829Z,12.00
2018-05-09T23:41:03.103Z,11.90
2018-05-09T23:43:31.389Z,12.00
2018-05-09T23:45:59.683Z,12.10
2018-05-09T23:48:27.951Z,12.10
2018-05-09T23:50:56.251Z,12.00
2018-05-09T23:53:23.763Z,12.00
2018-05-09T23:55:51.345Z,12.00
2018-05-09T23:58:18.805Z,11.90
